Hauptseite
METAR-TAF:

METAR-TAF

Flughäfen :

Heeresflugplatz Bückeburg

Bückeburg, Deutschland

Breite: 52-17N, Länge: 009-05E, Höhe: 70 m

Beobachtung

Neuester Wetterbericht von vor 1 Stunde und 3 Minuten, um 07:20 UTC
Wind 13 kt aus Süd
Temperatur 11°C
Luftfeuchtigkeit 82%
Luftdruck 1019 hPa
Sichtweite 10 km oder mehr
Leicht bewölkt in der Höhe von 1000 ft
Aufgelockert bewölkt in der Höhe von 35000 ft

METAR: ETHB 280720Z 18013KT 9999 FEW010 SCT350 11/08 Q1019 BLU+BLU+

Zeit: 10:23 (08:23 UTC)

Prognose

Neuester Wetterbericht von vor 1 Stunde und 22 Minuten, um 07:01 UTC
Gültige Prognose vom 28 um 08 UTC bis 28 um 17 UTC
Wind 10 kt aus Süd
Sichtweite 10 km oder mehr
Leicht bewölkt in der Höhe von 35000 ft

TAF: ETHB 280701Z 2808/2817 18010KT 9999 NSW FEW350

Wetterbeobachtungen und Prognosen von mehr als 4000 Flughäfen (METAR und TAF Bericht).

Die verfügbaren Stationen werden durch gelbe und rote Markierungen auf der Karte dargestellt.

Führen Sie die Maus auf sie, um den Namen der Station zu sehen.

Darauf klicken, um die Beobachtung von Wetterbeobachtungen und Prognosen zu sehen.

Um die Karte zu ändern : klicken Sie auf den grünen Tasten mit einem schwarzen Kreuz Zum Vergrößern, auf den grünen Button mit einem Gedankenstrich zu verkleinern, oder auf die grünen Pfeile für benachbarte Karten.


METAR-TAF: